Due to severe server failure at the provider, not all demo sites are operational. Will take some days to rebuilt everything.

Demonstration site - Click on the  for more information

This is an optional block. Switch it on/off in your settings-file: $SITE['bannerTop'] = false; or $SITE['bannerBottom'] = false;

You can display ads, any other important text or photo’s using text / html or PHP code.

You can place one or more at the top and or bottom and it can all be different for content / size .



Visit our other weather sites:

Template documentation
and downloads

And another site



Nearby METAR Reports

   
EBAW - Antwerp
Updated: 16-08-2018 21:50
Clear  
Clear  
   Wind: North 5.6 km/h
Wind: North 5.6 km/h
Temperature: 20°C
Dew Point: 16°C
Humidity: 78%
Barometer: 1015 hPa
Visibility: More than 10 km
Cloud details: Clear ft
EBAW 161950Z 01003KT 340V040 CAVOK 20/16 Q1015 NOSIG
EBLG - Liège
Updated: 16-08-2018 21:50
Clear  
Clear  
   Wind: NNW 7.4 km/h
Wind: NNW 7.4 km/h
Temperature: 21°C
Dew Point: 16°C
Humidity: 73%
Barometer: 1014 hPa
Visibility: More than 10 km
Cloud details: Clear ft
EBLG 161950Z 34004KT CAVOK 21/16 Q1014 NOSIG
EBCV - Mons/Bergen
Updated: 16-08-2018 21:55
Few Clouds  
Few Clouds  
   Wind: North 9.3 km/h
Wind: North 9.3 km/h
Temperature: 20°C
Dew Point: 16°C
Humidity: 78%
Barometer: 1015 hPa
Clouds: Few Clouds
Visibility: More than 10 km
Cloud details: Few Clouds 6600 ft
EBCV 161955Z AUTO 36005KT 9999 FEW066/// 20/16 Q1015 BLU
EHBK - Maastricht
Updated: 16-08-2018 21:55
Partly Cloudy  
Partly Cloudy  
   Wind: North 9.3 km/h
Wind: North 9.3 km/h
Temperature: 22°C
Dew Point: 16°C
Humidity: 69%
Barometer: 1014 hPa
Clouds: Partly Cloudy
Visibility: More than 10 km
Cloud details: Partly Cloudy ft
EHBK 161955Z AUTO 01005KT 340V040 9999 NSC 22/16 Q1014 NOSIG
ELLX - Luxemburg
Updated: 16-08-2018 21:50
Clear  
Clear  
   Wind: NNW 13 km/h
Wind: NNW 13 km/h
Temperature: 22°C
Dew Point: 14°C
Humidity: 61%
Barometer: 1014 hPa
Visibility: More than 10 km
Cloud details: Clear ft
ELLX 161950Z 33007KT CAVOK 22/14 Q1014 NOSIG
EBOS - Oostende
Updated: 16-08-2018 21:50
Partly Cloudy  
Partly Cloudy  
   Wind: WNW 16.7 km/h
Wind: WNW 16.7 km/h
Temperature: 17°C
Dew Point: 14°C
Humidity: 83%
Barometer: 1016 hPa
Clouds: Partly Cloudy
Visibility: More than 10 km
Cloud details: Partly Cloudy 1000 ft
EBOS 161950Z 30009KT 9999 SCT010 17/14 Q1016 TEMPO BKN010

Script developed by  Saratoga-weather.org Adapted for the template by  Weerstation Leuven

This is an optional block. Switch it on/off in your settings-file: $SITE['bannerTop'] = false; or $SITE['bannerBottom'] = false;

You can display ads, any other important text or photo’s using text / html or PHP code.

You can place one or more at the top and or bottom and it can all be different for content / size .